sensor_id;sensor_type;location;lat;lon;timestamp;temperature;humidity
18662;DHT22;61528;49.456;11.098;2022-07-12T03:03:13;15.00;99.90
18662;DHT22;61528;49.456;11.098;2022-07-12T03:05:40;15.00;99.90
18662;DHT22;61528;49.456;11.098;2022-07-12T03:08:07;15.00;99.90
18662;DHT22;61528;49.456;11.098;2022-07-12T03:10:34;14.90;99.90
18662;DHT22;61528;49.456;11.098;2022-07-12T03:13:00;14.90;99.90
18662;DHT22;61528;49.456;11.098;2022-07-12T03:15:26;14.90;99.90
18662;DHT22;61528;49.456;11.098;2022-07-12T03:17:54;14.80;99.90
18662;DHT22;61528;49.456;11.098;2022-07-12T03:20:20;14.80;99.90
18662;DHT22;61528;49.456;11.098;2022-07-12T03:22:47;14.80;99.90
18662;DHT22;61528;49.456;11.098;2022-07-12T03:25:14;14.80;99.90
18662;DHT22;61528;49.456;11.098;2022-07-12T03:27:40;14.80;99.90
18662;DHT22;61528;49.456;11.098;2022-07-12T03:30:07;14.70;99.90
18662;DHT22;61528;49.456;11.098;2022-07-12T03:32:34;14.70;99.90
18662;DHT22;61528;49.456;11.098;2022-07-12T03:34:59;14.70;99.90
18662;DHT22;61528;49.456;11.098;2022-07-12T03:37:25;14.70;99.90
18662;DHT22;61528;49.456;11.098;2022-07-12T03:39:51;14.60;99.90
18662;DHT22;61528;49.456;11.098;2022-07-12T03:42:21;14.50;99.90
18662;DHT22;61528;49.456;11.098;2022-07-12T03:44:48;14.60;99.90
18662;DHT22;61528;49.456;11.098;2022-07-12T03:47:13;14.60;99.90
18662;DHT22;61528;49.456;11.098;2022-07-12T03:49:39;14.60;99.90
18662;DHT22;61528;49.456;11.098;2022-07-12T03:52:05;14.50;99.90
18662;DHT22;61528;49.456;11.098;2022-07-12T03:54:32;14.50;99.90
18662;DHT22;61528;49.456;11.098;2022-07-12T03:56:58;14.40;99.90
18662;DHT22;61528;49.456;11.098;2022-07-12T03:59:39;14.50;99.90
18662;DHT22;61528;49.456;11.098;2022-07-12T04:02:05;14.40;99.90
18662;DHT22;61528;49.456;11.098;2022-07-12T04:04:31;14.40;99.90
18662;DHT22;61528;49.456;11.098;2022-07-12T04:06:57;14.40;99.90
18662;DHT22;61528;49.456;11.098;2022-07-12T04:09:23;14.40;99.90
18662;DHT22;61528;49.456;11.098;2022-07-12T04:11:49;14.40;99.90
18662;DHT22;61528;49.456;11.098;2022-07-12T04:14:15;14.40;99.90
18662;DHT22;61528;49.456;11.098;2022-07-12T04:16:44;14.40;99.90
18662;DHT22;61528;49.456;11.098;2022-07-12T04:19:10;14.40;99.90
18662;DHT22;61528;49.456;11.098;2022-07-12T04:21:37;14.40;99.90
18662;DHT22;61528;49.456;11.098;2022-07-12T04:24:03;14.40;99.90
18662;DHT22;61528;49.456;11.098;2022-07-12T04:26:30;14.40;99.90
18662;DHT22;61528;49.456;11.098;2022-07-12T04:28:55;14.30;99.90
18662;DHT22;61528;49.456;11.098;2022-07-12T04:31:21;14.40;99.90
18662;DHT22;61528;49.456;11.098;2022-07-12T04:33:47;14.40;99.90
18662;DHT22;61528;49.456;11.098;2022-07-12T04:36:13;14.30;99.90
18662;DHT22;61528;49.456;11.098;2022-07-12T04:38:39;14.40;99.90
18662;DHT22;61528;49.456;11.098;2022-07-12T04:41:04;14.40;99.90
18662;DHT22;61528;49.456;11.098;2022-07-12T04:43:31;14.40;99.90
18662;DHT22;61528;49.456;11.098;2022-07-12T04:46:05;14.40;99.90
18662;DHT22;61528;49.456;11.098;2022-07-12T04:48:32;14.50;99.90
18662;DHT22;61528;49.456;11.098;2022-07-12T04:50:57;14.50;99.90
18662;DHT22;61528;49.456;11.098;2022-07-12T04:53:23;14.40;99.90
18662;DHT22;61528;49.456;11.098;2022-07-12T04:55:49;14.40;99.90
18662;DHT22;61528;49.456;11.098;2022-07-12T04:58:15;14.40;99.90
18662;DHT22;61528;49.456;11.098;2022-07-12T05:00:41;14.40;99.90
18662;DHT22;61528;49.456;11.098;2022-07-12T05:03:06;14.40;99.90
18662;DHT22;61528;49.456;11.098;2022-07-12T05:05:32;14.40;99.90
18662;DHT22;61528;49.456;11.098;2022-07-12T05:07:58;14.30;99.90
18662;DHT22;61528;49.456;11.098;2022-07-12T05:10:24;14.40;99.90
18662;DHT22;61528;49.456;11.098;2022-07-12T05:12:49;14.40;99.90
18662;DHT22;61528;49.456;11.098;2022-07-12T05:15:15;14.40;99.90
18662;DHT22;61528;49.456;11.098;2022-07-12T05:17:41;14.50;99.90
18662;DHT22;61528;49.456;11.098;2022-07-12T05:20:07;14.50;99.90
18662;DHT22;61528;49.456;11.098;2022-07-12T05:22:33;14.50;99.90
18662;DHT22;61528;49.456;11.098;2022-07-12T05:24:59;14.50;99.90
18662;DHT22;61528;49.456;11.098;2022-07-12T05:27:25;14.50;99.90
18662;DHT22;61528;49.456;11.098;2022-07-12T05:29:51;14.50;99.90
18662;DHT22;61528;49.456;11.098;2022-07-12T05:32:17;14.50;99.90
18662;DHT22;61528;49.456;11.098;2022-07-12T05:34:43;14.60;99.90
18662;DHT22;61528;49.456;11.098;2022-07-12T05:37:09;14.70;99.90
18662;DHT22;61528;49.456;11.098;2022-07-12T05:39:35;14.70;99.90
18662;DHT22;61528;49.456;11.098;2022-07-12T05:42:01;14.80;99.90
18662;DHT22;61528;49.456;11.098;2022-07-12T05:44:26;14.80;99.90
18662;DHT22;61528;49.456;11.098;2022-07-12T05:46:52;14.90;99.90
18662;DHT22;61528;49.456;11.098;2022-07-12T05:49:18;14.90;99.90
18662;DHT22;61528;49.456;11.098;2022-07-12T05:51:44;15.00;99.90
18662;DHT22;61528;49.456;11.098;2022-07-12T05:54:28;15.00;99.90
18662;DHT22;61528;49.456;11.098;2022-07-12T05:56:53;15.10;99.90
18662;DHT22;61528;49.456;11.098;2022-07-12T05:59:19;15.10;99.90
18662;DHT22;61528;49.456;11.098;2022-07-12T06:01:45;15.10;99.90
18662;DHT22;61528;49.456;11.098;2022-07-12T06:04:11;15.20;99.90
18662;DHT22;61528;49.456;11.098;2022-07-12T06:06:37;15.20;99.90
18662;DHT22;61528;49.456;11.098;2022-07-12T06:09:03;15.30;99.90
18662;DHT22;61528;49.456;11.098;2022-07-12T06:11:29;15.40;99.90
18662;DHT22;61528;49.456;11.098;2022-07-12T06:13:55;15.50;99.90
18662;DHT22;61528;49.456;11.098;2022-07-12T06:16:21;15.60;99.90
18662;DHT22;61528;49.456;11.098;2022-07-12T06:18:47;15.60;99.90
18662;DHT22;61528;49.456;11.098;2022-07-12T06:21:13;15.70;99.90
18662;DHT22;61528;49.456;11.098;2022-07-12T06:23:38;15.70;99.90
18662;DHT22;61528;49.456;11.098;2022-07-12T06:26:04;15.80;99.90
18662;DHT22;61528;49.456;11.098;2022-07-12T06:28:30;15.80;99.90
18662;DHT22;61528;49.456;11.098;2022-07-12T06:30:57;15.90;99.90
18662;DHT22;61528;49.456;11.098;2022-07-12T06:33:23;16.00;99.90
18662;DHT22;61528;49.456;11.098;2022-07-12T06:35:49;16.00;99.90
18662;DHT22;61528;49.456;11.098;2022-07-12T06:38:15;16.00;99.90
18662;DHT22;61528;49.456;11.098;2022-07-12T06:40:41;16.10;99.90
18662;DHT22;61528;49.456;11.098;2022-07-12T06:43:11;16.20;99.90
18662;DHT22;61528;49.456;11.098;2022-07-12T06:45:37;16.20;99.90
18662;DHT22;61528;49.456;11.098;2022-07-12T06:50:30;16.30;99.90
18662;DHT22;61528;49.456;11.098;2022-07-12T06:52:56;16.40;99.90
18662;DHT22;61528;49.456;11.098;2022-07-12T06:55:22;16.50;99.90
18662;DHT22;61528;49.456;11.098;2022-07-12T06:57:51;16.50;99.90
18662;DHT22;61528;49.456;11.098;2022-07-12T07:00:17;16.60;99.90
18662;DHT22;61528;49.456;11.098;2022-07-12T07:02:42;16.70;99.90
18662;DHT22;61528;49.456;11.098;2022-07-12T07:05:09;16.70;99.90
18662;DHT22;61528;49.456;11.098;2022-07-12T07:07:36;16.80;99.90
18662;DHT22;61528;49.456;11.098;2022-07-12T07:10:03;16.80;99.90
18662;DHT22;61528;49.456;11.098;2022-07-12T07:12:28;16.80;99.90
18662;DHT22;61528;49.456;11.098;2022-07-12T07:14:54;16.90;99.90
18662;DHT22;61528;49.456;11.098;2022-07-12T07:17:20;16.90;99.90
18662;DHT22;61528;49.456;11.098;2022-07-12T07:19:46;17.00;99.90
18662;DHT22;61528;49.456;11.098;2022-07-12T07:22:13;17.10;99.90
18662;DHT22;61528;49.456;11.098;2022-07-12T07:24:39;17.20;99.90
18662;DHT22;61528;49.456;11.098;2022-07-12T07:27:05;17.30;99.90
18662;DHT22;61528;49.456;11.098;2022-07-12T07:29:31;17.40;99.90
18662;DHT22;61528;49.456;11.098;2022-07-12T07:32:16;17.40;99.90
18662;DHT22;61528;49.456;11.098;2022-07-12T07:34:42;17.50;99.90
18662;DHT22;61528;49.456;11.098;2022-07-12T07:37:08;17.60;99.90
18662;DHT22;61528;49.456;11.098;2022-07-12T07:39:35;17.60;99.90
18662;DHT22;61528;49.456;11.098;2022-07-12T07:42:01;17.60;99.90
18662;DHT22;61528;49.456;11.098;2022-07-12T07:44:27;17.70;99.90
18662;DHT22;61528;49.456;11.098;2022-07-12T07:46:53;17.80;99.90
18662;DHT22;61528;49.456;11.098;2022-07-12T07:49:19;17.80;99.90
18662;DHT22;61528;49.456;11.098;2022-07-12T07:51:45;17.80;99.90
18662;DHT22;61528;49.456;11.098;2022-07-12T07:54:11;17.90;99.90
18662;DHT22;61528;49.456;11.098;2022-07-12T07:56:37;18.00;99.90
18662;DHT22;61528;49.456;11.098;2022-07-12T07:59:05;18.10;99.90
18662;DHT22;61528;49.456;11.098;2022-07-12T08:01:33;18.20;99.90
18662;DHT22;61528;49.456;11.098;2022-07-12T08:04:09;18.20;99.90
18662;DHT22;61528;49.456;11.098;2022-07-12T08:06:36;18.30;99.90
18662;DHT22;61528;49.456;11.098;2022-07-12T08:09:02;18.40;99.90
18662;DHT22;61528;49.456;11.098;2022-07-12T08:11:28;18.40;99.90
18662;DHT22;61528;49.456;11.098;2022-07-12T08:13:54;18.50;99.90
18662;DHT22;61528;49.456;11.098;2022-07-12T08:16:20;18.60;99.90
18662;DHT22;61528;49.456;11.098;2022-07-12T08:18:46;18.60;99.90
18662;DHT22;61528;49.456;11.098;2022-07-12T08:21:12;18.70;99.90
18662;DHT22;61528;49.456;11.098;2022-07-12T08:23:40;18.70;99.90
18662;DHT22;61528;49.456;11.098;2022-07-12T08:26:06;18.80;99.90
18662;DHT22;61528;49.456;11.098;2022-07-12T08:28:32;18.80;99.90
18662;DHT22;61528;49.456;11.098;2022-07-12T08:30:58;18.90;99.90
18662;DHT22;61528;49.456;11.098;2022-07-12T08:33:23;18.90;99.90
18662;DHT22;61528;49.456;11.098;2022-07-12T08:35:49;18.90;99.90
18662;DHT22;61528;49.456;11.098;2022-07-12T08:38:15;19.00;99.90
18662;DHT22;61528;49.456;11.098;2022-07-12T08:40:42;19.00;99.90
18662;DHT22;61528;49.456;11.098;2022-07-12T08:43:08;19.00;99.90
18662;DHT22;61528;49.456;11.098;2022-07-12T08:45:35;19.10;99.90
18662;DHT22;61528;49.456;11.098;2022-07-12T08:48:03;19.10;99.90
18662;DHT22;61528;49.456;11.098;2022-07-12T08:50:29;19.10;99.90
18662;DHT22;61528;49.456;11.098;2022-07-12T08:52:55;19.10;99.90
18662;DHT22;61528;49.456;11.098;2022-07-12T08:57:52;19.30;99.90
18662;DHT22;61528;49.456;11.098;2022-07-12T09:00:19;19.40;99.90
18662;DHT22;61528;49.456;11.098;2022-07-12T09:02:52;19.50;99.90
18662;DHT22;61528;49.456;11.098;2022-07-12T09:05:21;19.60;99.90
18662;DHT22;61528;49.456;11.098;2022-07-12T09:07:48;19.60;99.90
18662;DHT22;61528;49.456;11.098;2022-07-12T09:10:14;19.80;99.90
18662;DHT22;61528;49.456;11.098;2022-07-12T09:12:42;19.90;99.90
18662;DHT22;61528;49.456;11.098;2022-07-12T09:15:15;20.00;99.90
18662;DHT22;61528;49.456;11.098;2022-07-12T09:18:03;20.10;99.90
18662;DHT22;61528;49.456;11.098;2022-07-12T09:20:33;20.10;99.90
18662;DHT22;61528;49.456;11.098;2022-07-12T09:23:10;20.10;99.90
18662;DHT22;61528;49.456;11.098;2022-07-12T09:25:38;20.10;99.90
18662;DHT22;61528;49.456;11.098;2022-07-12T09:28:06;20.20;99.90
18662;DHT22;61528;49.456;11.098;2022-07-12T09:30:33;20.20;99.90
18662;DHT22;61528;49.456;11.098;2022-07-12T09:33:08;20.20;99.90
18662;DHT22;61528;49.456;11.098;2022-07-12T09:36:01;20.30;99.90
18662;DHT22;61528;49.456;11.098;2022-07-12T09:38:39;20.40;99.90
18662;DHT22;61528;49.456;11.098;2022-07-12T09:41:07;20.50;99.90
18662;DHT22;61528;49.456;11.098;2022-07-12T09:43:36;20.70;99.90
18662;DHT22;61528;49.456;11.098;2022-07-12T09:46:02;20.80;99.90
18662;DHT22;61528;49.456;11.098;2022-07-12T09:48:29;20.90;99.90
18662;DHT22;61528;49.456;11.098;2022-07-12T09:50:57;21.00;99.90
18662;DHT22;61528;49.456;11.098;2022-07-12T09:53:31;21.00;99.90
18662;DHT22;61528;49.456;11.098;2022-07-12T09:56:04;21.00;99.80
18662;DHT22;61528;49.456;11.098;2022-07-12T09:58:36;21.00;98.80
18662;DHT22;61528;49.456;11.098;2022-07-12T10:01:06;21.00;98.90
18662;DHT22;61528;49.456;11.098;2022-07-12T10:03:33;21.00;98.40
18662;DHT22;61528;49.456;11.098;2022-07-12T10:06:01;21.00;98.20
18662;DHT22;61528;49.456;11.098;2022-07-12T10:08:30;21.10;98.40
18662;DHT22;61528;49.456;11.098;2022-07-12T10:10:57;21.10;98.20
18662;DHT22;61528;49.456;11.098;2022-07-12T10:13:23;21.20;98.00
18662;DHT22;61528;49.456;11.098;2022-07-12T10:15:51;21.20;97.70
18662;DHT22;61528;49.456;11.098;2022-07-12T10:18:19;21.30;97.70
18662;DHT22;61528;49.456;11.098;2022-07-12T10:20:47;21.20;96.90
18662;DHT22;61528;49.456;11.098;2022-07-12T10:25:46;21.30;96.50
18662;DHT22;61528;49.456;11.098;2022-07-12T10:28:16;21.50;96.10
18662;DHT22;61528;49.456;11.098;2022-07-12T10:36:03;21.60;95.50
18662;DHT22;61528;49.456;11.098;2022-07-12T10:38:32;21.60;95.70
18662;DHT22;61528;49.456;11.098;2022-07-12T10:41:16;21.70;95.90
18662;DHT22;61528;49.456;11.098;2022-07-12T10:43:46;21.80;95.20
18662;DHT22;61528;49.456;11.098;2022-07-12T10:46:31;21.80;95.40
18662;DHT22;61528;49.456;11.098;2022-07-12T10:49:27;22.00;94.90
18662;DHT22;61528;49.456;11.098;2022-07-12T10:57:03;22.00;94.10
18662;DHT22;61528;49.456;11.098;2022-07-12T10:59:34;22.00;93.70
18662;DHT22;61528;49.456;11.098;2022-07-12T11:02:00;22.10;92.80
18662;DHT22;61528;49.456;11.098;2022-07-12T11:04:27;22.10;92.40
18662;DHT22;61528;49.456;11.098;2022-07-12T11:06:54;22.20;92.50
18662;DHT22;61528;49.456;11.098;2022-07-12T11:09:25;22.30;92.40
18662;DHT22;61528;49.456;11.098;2022-07-12T11:11:54;22.40;91.60
18662;DHT22;61528;49.456;11.098;2022-07-12T11:16:48;22.30;90.70
18662;DHT22;61528;49.456;11.098;2022-07-12T11:19:15;22.30;90.90
18662;DHT22;61528;49.456;11.098;2022-07-12T11:21:45;22.40;90.90
18662;DHT22;61528;49.456;11.098;2022-07-12T11:24:21;22.50;91.20
18662;DHT22;61528;49.456;11.098;2022-07-12T11:26:48;22.50;91.10
18662;DHT22;61528;49.456;11.098;2022-07-12T11:29:14;22.60;91.00
18662;DHT22;61528;49.456;11.098;2022-07-12T11:31:40;22.70;90.90
18662;DHT22;61528;49.456;11.098;2022-07-12T11:34:06;22.70;90.60
18662;DHT22;61528;49.456;11.098;2022-07-12T11:36:32;22.80;90.70
18662;DHT22;61528;49.456;11.098;2022-07-12T11:38:59;22.90;90.00
18662;DHT22;61528;49.456;11.098;2022-07-12T11:41:26;22.90;90.30
18662;DHT22;61528;49.456;11.098;2022-07-12T11:43:52;23.00;90.10
18662;DHT22;61528;49.456;11.098;2022-07-12T11:46:17;23.20;90.00
18662;DHT22;61528;49.456;11.098;2022-07-12T11:48:43;23.30;89.10
18662;DHT22;61528;49.456;11.098;2022-07-12T11:51:11;23.20;88.60
18662;DHT22;61528;49.456;11.098;2022-07-12T11:53:38;23.20;89.20
18662;DHT22;61528;49.456;11.098;2022-07-12T11:56:08;23.30;88.40
18662;DHT22;61528;49.456;11.098;2022-07-12T11:58:35;23.40;88.00
18662;DHT22;61528;49.456;11.098;2022-07-12T12:01:04;23.50;87.10
18662;DHT22;61528;49.456;11.098;2022-07-12T12:03:31;23.50;86.90
18662;DHT22;61528;49.456;11.098;2022-07-12T12:05:58;23.60;86.30
18662;DHT22;61528;49.456;11.098;2022-07-12T12:08:24;23.70;85.70
18662;DHT22;61528;49.456;11.098;2022-07-12T12:13:28;23.80;84.00
18662;DHT22;61528;49.456;11.098;2022-07-12T12:15:59;23.80;84.40
18662;DHT22;61528;49.456;11.098;2022-07-12T12:18:36;23.80;83.90
18662;DHT22;61528;49.456;11.098;2022-07-12T12:21:12;23.80;84.00
18662;DHT22;61528;49.456;11.098;2022-07-12T12:23:40;23.90;83.70
18662;DHT22;61528;49.456;11.098;2022-07-12T12:28:50;24.10;83.00
18662;DHT22;61528;49.456;11.098;2022-07-12T12:31:21;24.10;82.90
18662;DHT22;61528;49.456;11.098;2022-07-12T12:33:48;24.10;81.60
18662;DHT22;61528;49.456;11.098;2022-07-12T12:38:43;24.10;81.60
18662;DHT22;61528;49.456;11.098;2022-07-12T12:41:10;24.20;81.70
18662;DHT22;61528;49.456;11.098;2022-07-12T12:43:37;24.40;81.60
18662;DHT22;61528;49.456;11.098;2022-07-12T12:46:04;24.40;81.50
18662;DHT22;61528;49.456;11.098;2022-07-12T12:48:30;24.50;80.70
18662;DHT22;61528;49.456;11.098;2022-07-12T12:51:10;24.50;79.80
18662;DHT22;61528;49.456;11.098;2022-07-12T12:53:37;24.50;80.00
18662;DHT22;61528;49.456;11.098;2022-07-12T12:56:13;24.50;80.40
18662;DHT22;61528;49.456;11.098;2022-07-12T12:58:39;24.60;79.40
18662;DHT22;61528;49.456;11.098;2022-07-12T13:01:06;24.70;79.10
18662;DHT22;61528;49.456;11.098;2022-07-12T13:03:32;24.60;79.30
18662;DHT22;61528;49.456;11.098;2022-07-12T13:05:58;24.60;79.20
18662;DHT22;61528;49.456;11.098;2022-07-12T13:08:25;24.60;78.40
18662;DHT22;61528;49.456;11.098;2022-07-12T13:10:53;24.80;77.80
18662;DHT22;61528;49.456;11.098;2022-07-12T13:13:38;24.90;77.60
18662;DHT22;61528;49.456;11.098;2022-07-12T13:16:05;24.90;77.60
18662;DHT22;61528;49.456;11.098;2022-07-12T13:18:30;24.90;77.40
18662;DHT22;61528;49.456;11.098;2022-07-12T13:20:56;24.90;77.70
18662;DHT22;61528;49.456;11.098;2022-07-12T13:23:22;25.00;77.30
18662;DHT22;61528;49.456;11.098;2022-07-12T13:25:48;25.10;77.60
18662;DHT22;61528;49.456;11.098;2022-07-12T13:28:14;25.10;77.00
18662;DHT22;61528;49.456;11.098;2022-07-12T13:30:40;25.10;76.50
18662;DHT22;61528;49.456;11.098;2022-07-12T13:33:06;25.20;76.70
18662;DHT22;61528;49.456;11.098;2022-07-12T13:35:32;25.40;76.60
18662;DHT22;61528;49.456;11.098;2022-07-12T13:37:58;25.50;76.50
18662;DHT22;61528;49.456;11.098;2022-07-12T13:40:24;25.50;75.90
18662;DHT22;61528;49.456;11.098;2022-07-12T13:42:51;25.60;75.40
18662;DHT22;61528;49.456;11.098;2022-07-12T13:45:20;25.60;74.70
18662;DHT22;61528;49.456;11.098;2022-07-12T13:47:46;25.70;74.90
18662;DHT22;61528;49.456;11.098;2022-07-12T13:50:14;25.70;75.00
18662;DHT22;61528;49.456;11.098;2022-07-12T13:52:41;25.80;74.50
18662;DHT22;61528;49.456;11.098;2022-07-12T13:55:12;25.90;74.00
18662;DHT22;61528;49.456;11.098;2022-07-12T13:57:38;25.90;74.00
18662;DHT22;61528;49.456;11.098;2022-07-12T14:00:15;26.10;73.60
18662;DHT22;61528;49.456;11.098;2022-07-12T14:02:47;26.30;73.20
18662;DHT22;61528;49.456;11.098;2022-07-12T14:05:14;26.50;71.90
18662;DHT22;61528;49.456;11.098;2022-07-12T14:07:41;26.50;72.20
18662;DHT22;61528;49.456;11.098;2022-07-12T14:10:08;26.50;70.80
18662;DHT22;61528;49.456;11.098;2022-07-12T14:12:35;26.50;71.40
18662;DHT22;61528;49.456;11.098;2022-07-12T14:15:02;26.50;70.20
18662;DHT22;61528;49.456;11.098;2022-07-12T14:17:37;26.50;70.20
18662;DHT22;61528;49.456;11.098;2022-07-12T14:20:04;26.60;70.10
18662;DHT22;61528;49.456;11.098;2022-07-12T14:22:30;26.60;69.50
18662;DHT22;61528;49.456;11.098;2022-07-12T14:24:56;26.70;70.40
18662;DHT22;61528;49.456;11.098;2022-07-12T14:27:22;26.90;69.10
18662;DHT22;61528;49.456;11.098;2022-07-12T14:29:49;26.90;69.00
18662;DHT22;61528;49.456;11.098;2022-07-12T14:32:14;26.80;68.20
18662;DHT22;61528;49.456;11.098;2022-07-12T14:34:41;26.90;68.50
18662;DHT22;61528;49.456;11.098;2022-07-12T14:37:07;27.00;68.30
18662;DHT22;61528;49.456;11.098;2022-07-12T14:39:33;26.90;67.00
18662;DHT22;61528;49.456;11.098;2022-07-12T14:42:00;26.90;66.80
18662;DHT22;61528;49.456;11.098;2022-07-12T14:44:26;27.10;66.70
18662;DHT22;61528;49.456;11.098;2022-07-12T14:46:52;27.20;66.20
18662;DHT22;61528;49.456;11.098;2022-07-12T14:49:19;27.10;66.00
18662;DHT22;61528;49.456;11.098;2022-07-12T14:51:49;27.20;65.80
18662;DHT22;61528;49.456;11.098;2022-07-12T14:54:16;27.30;65.60
18662;DHT22;61528;49.456;11.098;2022-07-12T14:56:42;27.40;66.60
18662;DHT22;61528;49.456;11.098;2022-07-12T14:59:07;27.50;66.10
18662;DHT22;61528;49.456;11.098;2022-07-12T15:01:33;27.40;64.80
18662;DHT22;61528;49.456;11.098;2022-07-12T15:03:59;27.50;64.50
18662;DHT22;61528;49.456;11.098;2022-07-12T15:06:25;27.40;64.30
18662;DHT22;61528;49.456;11.098;2022-07-12T15:08:55;27.40;64.20
18662;DHT22;61528;49.456;11.098;2022-07-12T15:11:22;27.40;64.90
18662;DHT22;61528;49.456;11.098;2022-07-12T15:18:40;29.30;59.80
18662;DHT22;61528;49.456;11.098;2022-07-12T15:21:06;29.30;59.60
18662;DHT22;61528;49.456;11.098;2022-07-12T15:28:25;29.50;58.30
18662;DHT22;61528;49.456;11.098;2022-07-12T15:30:52;29.60;58.20
18662;DHT22;61528;49.456;11.098;2022-07-12T15:33:18;29.70;58.50
18662;DHT22;61528;49.456;11.098;2022-07-12T15:35:44;29.60;57.60
18662;DHT22;61528;49.456;11.098;2022-07-12T15:38:10;29.60;57.80
18662;DHT22;61528;49.456;11.098;2022-07-12T15:40:37;29.40;57.60
18662;DHT22;61528;49.456;11.098;2022-07-12T15:43:03;29.10;58.40
18662;DHT22;61528;49.456;11.098;2022-07-12T15:45:29;28.90;59.10
18662;DHT22;61528;49.456;11.098;2022-07-12T15:47:55;28.90;58.60
18662;DHT22;61528;49.456;11.098;2022-07-12T15:50:21;29.10;58.70
18662;DHT22;61528;49.456;11.098;2022-07-12T15:52:47;29.30;57.80
18662;DHT22;61528;49.456;11.098;2022-07-12T15:55:32;29.60;57.30
18662;DHT22;61528;49.456;11.098;2022-07-12T15:57:58;30.20;56.20
18662;DHT22;61528;49.456;11.098;2022-07-12T16:00:25;30.00;57.10
18662;DHT22;61528;49.456;11.098;2022-07-12T16:02:51;29.70;57.40
18662;DHT22;61528;49.456;11.098;2022-07-12T16:05:18;29.60;56.70
18662;DHT22;61528;49.456;11.098;2022-07-12T16:07:44;29.60;57.70
18662;DHT22;61528;49.456;11.098;2022-07-12T16:10:10;29.50;56.70
18662;DHT22;61528;49.456;11.098;2022-07-12T16:12:36;29.50;57.50
18662;DHT22;61528;49.456;11.098;2022-07-12T16:15:06;29.70;55.70
18662;DHT22;61528;49.456;11.098;2022-07-12T16:17:32;29.90;55.50
18662;DHT22;61528;49.456;11.098;2022-07-12T16:19:58;30.10;55.00
18662;DHT22;61528;49.456;11.098;2022-07-12T16:22:24;30.10;55.00
18662;DHT22;61528;49.456;11.098;2022-07-12T16:24:51;30.00;55.40
18662;DHT22;61528;49.456;11.098;2022-07-12T16:27:17;30.10;55.60
18662;DHT22;61528;49.456;11.098;2022-07-12T16:29:43;30.10;55.20
18662;DHT22;61528;49.456;11.098;2022-07-12T16:32:09;30.10;55.70
18662;DHT22;61528;49.456;11.098;2022-07-12T16:34:35;30.30;54.90
18662;DHT22;61528;49.456;11.098;2022-07-12T16:37:01;30.60;54.20
18662;DHT22;61528;49.456;11.098;2022-07-12T16:41:53;30.70;53.70
18662;DHT22;61528;49.456;11.098;2022-07-12T16:44:19;30.70;54.00
18662;DHT22;61528;49.456;11.098;2022-07-12T16:46:46;30.70;53.70
18662;DHT22;61528;49.456;11.098;2022-07-12T16:49:12;30.60;53.70
18662;DHT22;61528;49.456;11.098;2022-07-12T16:51:38;30.30;53.60
18662;DHT22;61528;49.456;11.098;2022-07-12T16:54:04;30.10;54.20
18662;DHT22;61528;49.456;11.098;2022-07-12T16:56:31;30.00;54.60
18662;DHT22;61528;49.456;11.098;2022-07-12T16:58:57;29.90;54.30
18662;DHT22;61528;49.456;11.098;2022-07-12T17:01:24;29.70;54.90
18662;DHT22;61528;49.456;11.098;2022-07-12T17:03:51;29.50;55.50
18662;DHT22;61528;49.456;11.098;2022-07-12T17:06:18;29.40;55.30
18662;DHT22;61528;49.456;11.098;2022-07-12T17:08:44;29.10;55.90
18662;DHT22;61528;49.456;11.098;2022-07-12T17:11:11;29.10;55.70
18662;DHT22;61528;49.456;11.098;2022-07-12T17:13:38;29.00;55.80
18662;DHT22;61528;49.456;11.098;2022-07-12T17:16:04;28.70;56.20
18662;DHT22;61528;49.456;11.098;2022-07-12T17:18:31;28.70;56.40
18662;DHT22;61528;49.456;11.098;2022-07-12T17:20:58;28.70;56.10
18662;DHT22;61528;49.456;11.098;2022-07-12T17:23:24;28.60;56.60
18662;DHT22;61528;49.456;11.098;2022-07-12T17:25:50;28.50;56.80
18662;DHT22;61528;49.456;11.098;2022-07-12T17:28:16;28.40;56.60
18662;DHT22;61528;49.456;11.098;2022-07-12T17:30:43;28.30;56.30
18662;DHT22;61528;49.456;11.098;2022-07-12T17:33:10;28.30;56.60
18662;DHT22;61528;49.456;11.098;2022-07-12T17:35:37;28.20;56.60
18662;DHT22;61528;49.456;11.098;2022-07-12T17:38:05;28.10;56.70
18662;DHT22;61528;49.456;11.098;2022-07-12T17:40:31;27.90;57.10
18662;DHT22;61528;49.456;11.098;2022-07-12T17:42:57;27.90;57.20
18662;DHT22;61528;49.456;11.098;2022-07-12T17:45:23;27.80;57.20
18662;DHT22;61528;49.456;11.098;2022-07-12T17:47:51;27.80;56.90
18662;DHT22;61528;49.456;11.098;2022-07-12T17:50:19;27.80;56.90
18662;DHT22;61528;49.456;11.098;2022-07-12T17:52:45;27.70;57.10
18662;DHT22;61528;49.456;11.098;2022-07-12T17:55:12;27.60;57.10
18662;DHT22;61528;49.456;11.098;2022-07-12T17:57:39;27.60;57.30
18662;DHT22;61528;49.456;11.098;2022-07-12T18:02:33;27.30;57.30
18662;DHT22;61528;49.456;11.098;2022-07-12T18:05:00;27.30;58.20
18662;DHT22;61528;49.456;11.098;2022-07-12T18:07:29;27.30;58.10
18662;DHT22;61528;49.456;11.098;2022-07-12T18:09:59;27.30;58.10
18662;DHT22;61528;49.456;11.098;2022-07-12T18:12:25;27.20;58.10
18662;DHT22;61528;49.456;11.098;2022-07-12T18:15:10;27.20;58.30
18662;DHT22;61528;49.456;11.098;2022-07-12T18:17:39;27.20;58.40
18662;DHT22;61528;49.456;11.098;2022-07-12T18:20:24;27.20;58.40
18662;DHT22;61528;49.456;11.098;2022-07-12T18:22:50;27.00;58.80
18662;DHT22;61528;49.456;11.098;2022-07-12T18:25:16;27.10;59.00
18662;DHT22;61528;49.456;11.098;2022-07-12T18:27:42;27.00;59.00
18662;DHT22;61528;49.456;11.098;2022-07-12T18:30:09;27.10;58.90
18662;DHT22;61528;49.456;11.098;2022-07-12T18:32:35;27.10;58.90
18662;DHT22;61528;49.456;11.098;2022-07-12T18:35:05;27.20;58.60
18662;DHT22;61528;49.456;11.098;2022-07-12T18:37:32;27.10;58.30
18662;DHT22;61528;49.456;11.098;2022-07-12T18:39:58;27.10;58.60
18662;DHT22;61528;49.456;11.098;2022-07-12T18:42:25;27.10;58.80
18662;DHT22;61528;49.456;11.098;2022-07-12T18:44:51;27.00;58.80
18662;DHT22;61528;49.456;11.098;2022-07-12T18:47:18;26.90;59.30
18662;DHT22;61528;49.456;11.098;2022-07-12T18:49:44;26.90;59.10
18662;DHT22;61528;49.456;11.098;2022-07-12T18:52:14;26.80;59.60
18662;DHT22;61528;49.456;11.098;2022-07-12T18:54:40;26.80;59.70
18662;DHT22;61528;49.456;11.098;2022-07-12T18:57:07;26.70;59.50
18662;DHT22;61528;49.456;11.098;2022-07-12T18:59:34;26.70;59.70
18662;DHT22;61528;49.456;11.098;2022-07-12T19:02:01;26.80;59.30